aviador You're here:

PAOH Decoded Metar

HOONAH in AK, USA
Report Time2018-02-22 14:56:00
UTC Time2018-02-22 15:04:14
Flight Rules vfr VFR
Wind080° at 06 kt
W.Decomp.*RWY 06: 6.0 kt HW -0 kt LCW
W.Rank080° ranks 2
Current wind is below 080° avg. (7.0)
Visibility9999 m
Phenomena:N/A
Clouds:Overcast 042 Hf
Expected CloudBase > 800 ft AGL from Temp-Dew spread
Ceiling4,200 ft
Temp01°C (ISA -14)
Dew Point-1°C (87% RH)
AAT-3.3°C
QNH1026 hPa
Density Alt-2,034 ft
Elevation30 ft
Report Wrong Elevation
Raw Report
PAOH 221456Z AUTO 08006KT 10SM OVC042 01/M01 A3031 RMK AO2 SLP265
60000 T00061011 58016 FZRANO=

Extra information for PAOH:More info

Metar Taf Metar & Taf Last 4 Metars F.Rules Stats Wind Profile Meteogram Temp Stats Airport Information Weather charts Add Link Nearby VenuesMetar ALERT Operation Metar Decoded Social comments

AIRNAV info for PAOH